createdAt,value
2022-10-18T00:00:59.973Z,4.00
2022-10-18T00:04:41.580Z,4.23
2022-10-18T00:07:48.117Z,3.60
2022-10-18T00:10:54.025Z,3.90
2022-10-18T00:14:03.850Z,3.47
2022-10-18T00:17:10.121Z,3.40
2022-10-18T00:20:19.791Z,3.50
2022-10-18T00:23:25.341Z,3.33
2022-10-18T00:26:33.333Z,3.30
2022-10-18T00:29:38.985Z,3.40
2022-10-18T00:32:45.830Z,3.53
2022-10-18T00:35:54.519Z,3.30
2022-10-18T00:39:03.049Z,3.23
2022-10-18T00:42:09.125Z,3.00
2022-10-18T00:45:22.462Z,2.97
2022-10-18T00:48:28.225Z,3.10
2022-10-18T00:51:41.461Z,3.40
2022-10-18T00:54:49.557Z,2.93
2022-10-18T00:57:56.817Z,2.73
2022-10-18T01:01:02.729Z,3.53
2022-10-18T01:04:09.398Z,3.23
2022-10-18T01:07:31.314Z,3.17
2022-10-18T01:10:45.982Z,3.30
2022-10-18T01:14:06.080Z,2.93
2022-10-18T01:17:20.252Z,3.47
2022-10-18T01:20:57.528Z,2.93
2022-10-18T01:24:48.741Z,2.90
2022-10-18T01:28:01.066Z,2.93
2022-10-18T01:31:15.422Z,3.00
2022-10-18T01:34:23.068Z,2.90
2022-10-18T01:37:32.490Z,3.23
2022-10-18T01:40:39.551Z,2.63
2022-10-18T01:43:48.524Z,3.10
2022-10-18T01:46:59.983Z,2.87
2022-10-18T01:50:10.010Z,2.57
2022-10-18T01:53:26.353Z,2.83
2022-10-18T01:56:40.102Z,2.70
2022-10-18T01:59:55.970Z,2.63
2022-10-18T02:03:09.871Z,2.90
2022-10-18T02:06:24.789Z,2.77
2022-10-18T02:09:39.766Z,2.73
2022-10-18T02:12:48.360Z,2.93
2022-10-18T02:16:00.721Z,2.90
2022-10-18T02:19:17.565Z,2.83
2022-10-18T02:22:27.033Z,2.93
2022-10-18T02:25:34.841Z,2.80
2022-10-18T02:28:41.834Z,2.80
2022-10-18T02:31:49.621Z,3.20
2022-10-18T02:35:04.095Z,3.20
2022-10-18T02:38:11.225Z,3.17
2022-10-18T02:41:26.065Z,2.97
2022-10-18T02:44:31.650Z,3.20
2022-10-18T02:47:38.436Z,2.90
2022-10-18T02:50:46.825Z,2.93
2022-10-18T02:53:53.286Z,3.53
2022-10-18T02:56:59.065Z,3.50
2022-10-18T03:00:07.371Z,3.00
2022-10-18T03:03:12.956Z,2.73
2022-10-18T03:06:22.414Z,3.63
2022-10-18T03:09:28.117Z,3.10
2022-10-18T03:12:34.562Z,3.27
2022-10-18T03:15:40.363Z,3.30
2022-10-18T03:18:46.840Z,3.60
2022-10-18T03:21:55.268Z,2.90
2022-10-18T03:25:03.312Z,3.20
2022-10-18T03:28:09.199Z,2.90
2022-10-18T03:31:15.585Z,3.13
2022-10-18T03:34:21.317Z,3.30
2022-10-18T03:37:30.575Z,3.30
2022-10-18T03:40:36.202Z,3.07
2022-10-18T03:43:42.904Z,3.17
2022-10-18T03:46:48.432Z,2.67
2022-10-18T03:49:57.207Z,3.27
2022-10-18T03:53:06.116Z,3.07
2022-10-18T03:56:12.588Z,3.13
2022-10-18T03:59:18.749Z,3.10
2022-10-18T04:02:25.177Z,3.13
2022-10-18T04:05:31.644Z,2.83
2022-10-18T04:08:40.951Z,2.97
2022-10-18T04:11:46.739Z,3.23
2022-10-18T04:14:55.391Z,3.30
2022-10-18T04:18:03.335Z,3.10
2022-10-18T04:21:10.086Z,3.50
2022-10-18T04:24:19.713Z,3.17
2022-10-18T04:27:26.649Z,3.13
2022-10-18T04:30:32.200Z,3.50
2022-10-18T04:33:38.758Z,3.63
2022-10-18T04:36:44.506Z,3.40
2022-10-18T04:39:53.931Z,3.27
2022-10-18T04:42:59.867Z,3.70
2022-10-18T04:46:07.828Z,3.63
2022-10-18T04:49:13.502Z,3.27
2022-10-18T04:52:20.272Z,3.10
2022-10-18T04:55:28.741Z,3.30
2022-10-18T04:58:35.813Z,2.93
2022-10-18T05:01:41.716Z,2.87
2022-10-18T05:04:48.197Z,3.03
2022-10-18T05:07:53.962Z,3.03
2022-10-18T05:11:03.290Z,3.20
2022-10-18T05:14:10.328Z,3.57
2022-10-18T05:17:16.879Z,3.40
2022-10-18T05:20:22.446Z,3.73
2022-10-18T05:23:28.974Z,3.17
2022-10-18T05:26:37.416Z,3.40
2022-10-18T05:29:43.863Z,3.30
2022-10-18T05:32:49.438Z,2.90
2022-10-18T05:35:55.850Z,3.27
2022-10-18T05:39:05.011Z,3.17
2022-10-18T05:42:14.690Z,2.90
2022-10-18T05:45:20.794Z,3.90
2022-10-18T05:48:27.449Z,3.37
2022-10-18T05:51:32.976Z,3.23
2022-10-18T05:54:39.594Z,3.33
2022-10-18T05:57:52.406Z,3.70
2022-10-18T06:01:03.572Z,3.17
2022-10-18T06:04:10.334Z,3.70
2022-10-18T06:07:16.797Z,3.10
2022-10-18T06:10:22.429Z,3.60
2022-10-18T06:13:33.713Z,3.97
2022-10-18T06:16:39.464Z,3.50
2022-10-18T06:19:46.467Z,3.87
2022-10-18T06:22:55.183Z,3.90
2022-10-18T06:26:03.050Z,3.20
2022-10-18T06:29:11.555Z,3.03
2022-10-18T06:32:20.244Z,3.40
2022-10-18T06:35:25.820Z,3.07
2022-10-18T06:38:33.259Z,2.87
2022-10-18T06:41:38.863Z,3.03
2022-10-18T06:45:01.233Z,3.10
2022-10-18T06:48:07.935Z,3.00
2022-10-18T06:51:15.415Z,2.77
2022-10-18T06:54:21.003Z,3.13
2022-10-18T06:57:27.536Z,2.80
2022-10-18T07:00:35.890Z,3.27
2022-10-18T07:03:42.905Z,2.63
2022-10-18T07:06:48.450Z,3.10
2022-10-18T07:09:54.919Z,3.00
2022-10-18T07:13:20.089Z,3.67
2022-10-18T07:16:30.279Z,2.93
2022-10-18T07:19:35.835Z,3.13
2022-10-18T07:22:42.244Z,3.40
2022-10-18T07:25:47.789Z,2.90
2022-10-18T07:28:58.092Z,3.07
2022-10-18T07:32:06.655Z,2.93
2022-10-18T07:35:13.238Z,3.37
2022-10-18T07:38:18.894Z,2.83
2022-10-18T07:41:25.637Z,3.00
2022-10-18T07:44:31.519Z,3.03
2022-10-18T07:47:41.153Z,3.03
2022-10-18T07:50:47.025Z,2.90
2022-10-18T07:53:53.628Z,2.97
2022-10-18T07:56:59.174Z,3.23
2022-10-18T08:00:06.812Z,2.80
2022-10-18T08:03:19.843Z,3.07
2022-10-18T08:06:26.486Z,3.20
2022-10-18T08:09:32.083Z,2.80
2022-10-18T08:12:38.533Z,3.00
2022-10-18T08:15:44.116Z,3.03
2022-10-18T08:18:53.711Z,2.80
2022-10-18T08:28:53.980Z,2.70
2022-10-18T08:32:10.776Z,2.53
2022-10-18T08:35:20.087Z,2.80
2022-10-18T08:38:25.777Z,2.17
2022-10-18T08:41:57.605Z,2.70
2022-10-18T08:45:12.589Z,2.80
2022-10-18T08:48:32.148Z,2.70
2022-10-18T08:51:45.577Z,2.60
2022-10-18T08:55:03.387Z,2.80
2022-10-18T08:58:20.071Z,2.77
2022-10-18T09:01:35.514Z,4.90
2022-10-18T09:04:51.497Z,3.10
2022-10-18T09:08:34.063Z,2.70
2022-10-18T09:11:50.462Z,2.90
2022-10-18T09:15:12.205Z,2.93
2022-10-18T09:18:32.795Z,2.67
2022-10-18T09:21:50.505Z,2.50
2022-10-18T09:25:09.214Z,2.53
2022-10-18T09:28:27.310Z,2.47
2022-10-18T09:31:45.702Z,3.60
2022-10-18T09:34:56.487Z,2.43
2022-10-18T09:38:07.683Z,2.80
2022-10-18T09:41:21.371Z,2.60
2022-10-18T09:44:30.482Z,2.60
2022-10-18T09:47:42.162Z,2.70
2022-10-18T09:50:53.870Z,2.50
2022-10-18T09:54:12.375Z,2.63
2022-10-18T09:57:28.629Z,2.33
2022-10-18T10:00:42.249Z,3.00
2022-10-18T10:03:48.178Z,2.43
2022-10-18T10:06:55.689Z,2.30
2022-10-18T10:10:03.604Z,2.50
2022-10-18T10:13:22.541Z,2.83
2022-10-18T10:16:30.177Z,2.43
2022-10-18T10:19:40.828Z,2.80
2022-10-18T10:22:49.528Z,2.60
2022-10-18T10:25:58.008Z,2.57
2022-10-18T10:29:13.219Z,2.80
2022-10-18T10:32:28.910Z,2.70
2022-10-18T10:35:54.053Z,3.10
2022-10-18T10:39:13.962Z,2.50
2022-10-18T10:42:19.768Z,2.50
2022-10-18T10:45:31.237Z,2.27
2022-10-18T10:48:48.443Z,2.60
2022-10-18T10:52:08.463Z,2.60
2022-10-18T10:55:35.473Z,2.50
2022-10-18T10:58:43.715Z,2.20
2022-10-18T11:01:53.323Z,2.50
2022-10-18T11:05:18.668Z,2.40
2022-10-18T11:08:27.773Z,2.77
2022-10-18T11:11:38.137Z,2.33
2022-10-18T11:14:48.942Z,2.40
2022-10-18T11:18:08.194Z,2.00
2022-10-18T11:21:18.108Z,2.30
2022-10-18T11:24:26.211Z,2.40
2022-10-18T11:27:38.207Z,2.33
2022-10-18T11:30:59.071Z,2.30
2022-10-18T11:34:21.930Z,2.30
2022-10-18T11:37:43.826Z,2.20
2022-10-18T11:41:07.477Z,1.93
2022-10-18T11:44:26.569Z,2.37
2022-10-18T11:47:41.027Z,2.33
2022-10-18T11:50:59.033Z,2.20
2022-10-18T11:54:25.843Z,2.33
2022-10-18T11:57:53.845Z,2.40
2022-10-18T12:01:06.315Z,2.23
2022-10-18T12:04:18.050Z,2.70
2022-10-18T12:07:31.625Z,2.00
2022-10-18T12:10:53.027Z,2.17
2022-10-18T12:14:17.210Z,2.30
2022-10-18T12:17:42.710Z,2.70
2022-10-18T12:20:52.651Z,2.22
2022-10-18T12:24:06.336Z,2.33
2022-10-18T12:27:16.499Z,2.50
2022-10-18T12:30:32.081Z,1.90
2022-10-18T12:33:41.783Z,2.17
2022-10-18T12:37:15.468Z,2.07
2022-10-18T12:40:28.951Z,2.50
2022-10-18T12:43:39.499Z,2.50
2022-10-18T12:46:50.569Z,3.07
2022-10-18T12:50:02.889Z,2.50
2022-10-18T12:53:20.912Z,2.35
2022-10-18T12:56:42.777Z,2.63
2022-10-18T12:59:48.478Z,2.42
2022-10-18T13:03:43.113Z,2.33
2022-10-18T13:07:22.058Z,2.20
2022-10-18T13:10:38.999Z,2.60
2022-10-18T13:14:06.865Z,2.47
2022-10-18T13:17:32.000Z,2.50
2022-10-18T13:20:47.047Z,2.53
2022-10-18T13:24:12.359Z,2.40
2022-10-18T13:27:35.817Z,2.30
2022-10-18T13:30:51.503Z,2.85
2022-10-18T13:33:57.250Z,2.33
2022-10-18T13:37:09.066Z,2.35
2022-10-18T13:40:25.221Z,2.17
2022-10-18T13:44:23.656Z,2.78
2022-10-18T13:47:37.735Z,2.63
2022-10-18T13:50:46.252Z,3.10
2022-10-18T13:54:06.833Z,2.70
2022-10-18T13:57:35.507Z,2.80
2022-10-18T14:00:57.910Z,2.97
2022-10-18T14:04:40.954Z,2.88
2022-10-18T14:07:49.311Z,2.80
2022-10-18T14:11:06.500Z,2.78
2022-10-18T14:14:19.700Z,2.87
2022-10-18T14:17:35.045Z,2.87
2022-10-18T14:21:01.436Z,2.47
2022-10-18T14:24:22.163Z,3.00
2022-10-18T14:27:33.677Z,3.20
2022-10-18T14:30:41.601Z,2.93
2022-10-18T14:33:53.729Z,3.20
2022-10-18T14:37:03.102Z,2.90
2022-10-18T14:40:09.479Z,3.13
2022-10-18T14:43:22.656Z,2.90
2022-10-18T14:46:31.243Z,2.72
2022-10-18T14:49:46.722Z,3.07
2022-10-18T14:52:52.916Z,3.47
2022-10-18T14:56:04.317Z,3.47
2022-10-18T14:59:21.611Z,2.73
2022-10-18T15:02:29.550Z,2.73
2022-10-18T15:05:35.234Z,3.13
2022-10-18T15:08:44.122Z,2.97
2022-10-18T15:11:50.618Z,3.10
2022-10-18T15:15:00.500Z,3.57
2022-10-18T15:18:08.580Z,2.80
2022-10-18T15:21:25.031Z,2.83
2022-10-18T15:24:36.397Z,3.47
2022-10-18T15:27:45.411Z,2.70
2022-10-18T15:30:54.061Z,2.93
2022-10-18T15:34:12.896Z,2.97
2022-10-18T15:37:23.282Z,2.70
2022-10-18T15:40:36.816Z,3.97
2022-10-18T15:43:42.468Z,2.73
2022-10-18T15:46:53.165Z,3.60
2022-10-18T15:50:06.975Z,3.30
2022-10-18T15:53:47.515Z,3.37
2022-10-18T15:56:53.243Z,3.17
2022-10-18T16:00:03.808Z,3.07
2022-10-18T16:03:24.087Z,3.73
2022-10-18T16:06:30.860Z,3.70
2022-10-18T16:09:36.529Z,4.17
2022-10-18T16:12:43.500Z,4.33
2022-10-18T16:15:49.305Z,4.37
2022-10-18T16:18:59.435Z,4.10
2022-10-18T16:22:07.224Z,4.17
2022-10-18T16:25:13.996Z,3.87
2022-10-18T16:28:21.399Z,4.23
2022-10-18T16:31:30.221Z,3.43
2022-10-18T16:34:38.847Z,3.97
2022-10-18T16:37:45.336Z,4.30
2022-10-18T16:40:51.683Z,4.17
2022-10-18T16:43:58.219Z,3.57
2022-10-18T16:47:04.082Z,4.20
2022-10-18T16:50:17.311Z,4.20
2022-10-18T16:53:23.990Z,4.37
2022-10-18T16:56:33.429Z,4.03
2022-10-18T16:59:39.092Z,3.80
2022-10-18T17:02:45.820Z,3.57
2022-10-18T17:05:54.650Z,4.47
2022-10-18T17:09:01.220Z,4.47
2022-10-18T17:12:08.695Z,3.93
2022-10-18T17:15:16.026Z,4.00
2022-10-18T17:18:26.540Z,4.60
2022-10-18T17:21:36.649Z,4.63
2022-10-18T17:24:42.290Z,4.60
2022-10-18T17:27:49.571Z,4.30
2022-10-18T17:30:55.170Z,4.13
2022-10-18T17:34:03.872Z,4.53
2022-10-18T17:37:13.790Z,4.70
2022-10-18T17:40:20.625Z,4.73
2022-10-18T17:43:26.725Z,4.73
2022-10-18T17:46:36.881Z,5.00
2022-10-18T17:49:44.856Z,4.57
2022-10-18T17:52:54.215Z,4.47
2022-10-18T17:56:03.671Z,5.17
2022-10-18T17:59:10.204Z,5.73
2022-10-18T18:02:15.815Z,5.10
2022-10-18T18:05:22.284Z,5.30
2022-10-18T18:08:30.999Z,5.23
2022-10-18T18:11:38.614Z,4.90
2022-10-18T18:14:44.196Z,5.60
2022-10-18T18:17:57.201Z,5.20
2022-10-18T18:21:03.430Z,6.00
2022-10-18T18:24:17.928Z,5.90
2022-10-18T18:27:23.627Z,6.10
2022-10-18T18:30:30.558Z,5.53
2022-10-18T18:33:36.631Z,5.33
2022-10-18T18:36:43.526Z,6.00
2022-10-18T18:39:51.975Z,5.47
2022-10-18T18:43:07.133Z,6.20
2022-10-18T18:46:24.691Z,5.67
2022-10-18T18:49:31.664Z,6.17
2022-10-18T18:52:37.317Z,5.87
2022-10-18T18:55:46.606Z,6.80
2022-10-18T18:58:52.489Z,5.30
2022-10-18T19:01:58.983Z,4.83
2022-10-18T19:05:06.307Z,3.77
2022-10-18T19:08:12.826Z,3.53
2022-10-18T19:11:23.922Z,2.63
2022-10-18T19:14:31.285Z,3.13
2022-10-18T19:17:37.289Z,2.63
2022-10-18T19:20:43.801Z,2.70
2022-10-18T19:23:50.426Z,2.67
2022-10-18T19:27:03.373Z,2.17
2022-10-18T19:30:12.259Z,2.37
2022-10-18T19:33:35.568Z,2.33
2022-10-18T19:36:50.083Z,2.50
2022-10-18T19:39:56.866Z,2.13
2022-10-18T19:43:06.528Z,2.30
2022-10-18T19:46:12.993Z,2.40
2022-10-18T19:49:19.601Z,2.67
2022-10-18T19:52:26.055Z,2.90
2022-10-18T19:55:31.657Z,2.50
2022-10-18T19:58:41.116Z,2.63
2022-10-18T20:01:47.474Z,2.33
2022-10-18T20:04:54.456Z,2.30
2022-10-18T20:08:00.349Z,2.53
2022-10-18T20:11:10.595Z,2.77
2022-10-18T20:14:19.300Z,2.63
2022-10-18T20:17:25.736Z,2.87
2022-10-18T20:20:48.996Z,2.20
2022-10-18T20:23:56.093Z,2.23
2022-10-18T20:27:03.305Z,2.40
2022-10-18T20:30:13.662Z,2.20
2022-10-18T20:33:19.235Z,1.80
2022-10-18T20:36:26.123Z,2.00
2022-10-18T20:39:33.680Z,1.90
2022-10-18T20:42:40.211Z,2.13
2022-10-18T20:45:48.835Z,2.03
2022-10-18T20:48:56.229Z,1.77
2022-10-18T20:52:03.315Z,1.27
2022-10-18T20:55:10.724Z,1.67
2022-10-18T20:58:16.385Z,1.50
2022-10-18T21:01:27.435Z,1.60
2022-10-18T21:04:33.208Z,1.40
2022-10-18T21:07:39.739Z,1.30
2022-10-18T21:10:45.305Z,1.50
2022-10-18T21:13:55.527Z,1.57
2022-10-18T21:17:04.213Z,1.50
2022-10-18T21:20:12.212Z,1.70
2022-10-18T21:23:17.936Z,1.37
2022-10-18T21:26:26.179Z,1.60
2022-10-18T21:29:32.474Z,1.60
2022-10-18T21:32:41.653Z,1.47
2022-10-18T21:35:47.234Z,1.70
2022-10-18T21:38:54.694Z,1.43
2022-10-18T21:42:00.334Z,1.80
2022-10-18T21:45:09.615Z,1.37
2022-10-18T21:48:18.181Z,1.53
2022-10-18T21:51:27.759Z,1.80
2022-10-18T21:54:34.492Z,1.60
2022-10-18T21:57:41.041Z,2.17
2022-10-18T22:00:46.735Z,1.73
2022-10-18T22:03:57.975Z,2.13
2022-10-18T22:07:03.530Z,2.33
2022-10-18T22:10:11.240Z,2.30
2022-10-18T22:13:16.818Z,3.03
2022-10-18T22:16:23.280Z,2.30
2022-10-18T22:19:34.757Z,2.37
2022-10-18T22:22:41.219Z,2.60
2022-10-18T22:25:47.072Z,2.70
2022-10-18T22:28:58.691Z,3.43
2022-10-18T22:32:06.082Z,3.63
2022-10-18T22:35:15.379Z,3.37
2022-10-18T22:38:21.271Z,4.27
2022-10-18T22:41:27.742Z,3.70
2022-10-18T22:44:34.361Z,4.40
2022-10-18T22:47:40.907Z,4.70
2022-10-18T22:50:49.300Z,4.90
2022-10-18T22:53:56.399Z,3.63
2022-10-18T22:57:06.181Z,4.07
2022-10-18T23:00:15.244Z,3.57
2022-10-18T23:03:22.061Z,3.10
2022-10-18T23:06:33.334Z,3.97
2022-10-18T23:12:50.293Z,3.40
2022-10-18T23:15:56.455Z,3.00
2022-10-18T23:19:03.108Z,3.37
2022-10-18T23:22:11.436Z,2.70
2022-10-18T23:25:18.133Z,3.40
2022-10-18T23:28:24.027Z,3.27
2022-10-18T23:31:32.536Z,3.67
2022-10-18T23:34:38.123Z,3.90
2022-10-18T23:37:47.465Z,4.17
2022-10-18T23:40:53.015Z,4.30
2022-10-18T23:43:59.521Z,3.73
2022-10-18T23:47:06.577Z,3.83
2022-10-18T23:50:13.525Z,3.67
2022-10-18T23:53:22.406Z,3.90
2022-10-18T23:56:28.797Z,4.07
2022-10-18T23:59:34.711Z,3.47
